Time;durP1;ratioP1;P1;durP2;ratioP2;P2;SDS_P1;SDS_P2;PMS_P1;PMS_P2;Temp;Humidity;BMP_temperature;BMP_pressure;BME280_temperature;BME280_humidity;BME280_pressure;Samples;Min_cycle;Max_cycle;Signal;HPM_P1;HPM_P2
2021/09/03 00:00:32;;;;;;;4.35;3.95;;;19.40;73.10;;;;;;10538311;28;20417;-70
2021/09/03 00:05:55;;;;;;;3.80;3.30;;;19.60;71.30;;;;;;10538893;28;20568;-69
2021/09/03 00:11:17;;;;;;;4.10;3.23;;;19.50;72.40;;;;;;10538088;28;20744;-70
2021/09/03 00:16:39;;;;;;;4.33;3.90;;;19.50;72.70;;;;;;10539110;28;20572;-70
2021/09/03 00:22:03;;;;;;;3.67;3.27;;;19.40;72.20;;;;;;10537558;28;20703;-69
2021/09/03 00:27:25;;;;;;;3.60;3.30;;;19.40;72.50;;;;;;10537705;28;20694;-70
2021/09/03 00:32:48;;;;;;;3.50;3.20;;;19.40;72.90;;;;;;10538264;28;20671;-70
2021/09/03 00:38:11;;;;;;;3.70;3.30;;;19.30;73.00;;;;;;10538377;28;20219;-68
2021/09/03 00:43:33;;;;;;;3.63;3.30;;;19.40;72.20;;;;;;10538721;28;20199;-68
2021/09/03 00:48:56;;;;;;;3.60;3.20;;;19.40;73.00;;;;;;10537557;28;20679;-69
2021/09/03 00:54:20;;;;;;;3.40;3.10;;;19.30;73.10;;;;;;10537791;28;20271;-70
2021/09/03 00:59:42;;;;;;;3.90;3.50;;;19.30;72.40;;;;;;10495107;28;20209;-70
2021/09/03 01:05:05;;;;;;;3.37;3.07;;;19.40;73.00;;;;;;10495114;28;20205;-70
2021/09/03 01:10:28;;;;;;;4.17;3.77;;;19.30;73.20;;;;;;10553351;22;20227;-65
2021/09/03 01:15:50;;;;;;;3.90;3.30;;;19.30;73.20;;;;;;10512239;28;20208;-65
2021/09/03 01:21:13;;;;;;;4.17;3.40;;;19.30;72.90;;;;;;10526399;28;20238;-65
2021/09/03 01:26:36;;;;;;;3.33;3.03;;;19.30;73.40;;;;;;10534157;28;20223;-65
2021/09/03 01:31:58;;;;;;;3.40;3.10;;;19.30;73.40;;;;;;10494288;28;20969;-65
2021/09/03 01:37:20;;;;;;;3.33;3.03;;;19.30;72.80;;;;;;10517955;28;20583;-64
2021/09/03 01:42:44;;;;;;;3.37;3.07;;;19.30;73.50;;;;;;10535090;28;20227;-65
2021/09/03 01:48:06;;;;;;;3.30;2.93;;;19.30;73.50;;;;;;10533701;28;20719;-66
2021/09/03 01:53:29;;;;;;;3.33;3.03;;;19.30;72.70;;;;;;10534357;28;20243;-65
2021/09/03 01:58:52;;;;;;;2.93;2.67;;;19.40;73.30;;;;;;10533227;28;20588;-66
2021/09/03 02:04:14;;;;;;;3.27;2.97;;;19.30;73.60;;;;;;10533782;28;20659;-65
2021/09/03 02:09:36;;;;;;;3.80;3.50;;;19.30;73.40;;;;;;10533037;28;20243;-64
2021/09/03 02:15:00;;;;;;;3.10;2.77;;;19.30;73.80;;;;;;10533386;28;20203;-65
2021/09/03 02:20:22;;;;;;;3.13;2.60;;;19.30;73.60;;;;;;10532227;28;20219;-67
2021/09/03 02:25:44;;;;;;;3.00;2.77;;;19.30;74.20;;;;;;10533402;28;20216;-65
2021/09/03 02:31:07;;;;;;;2.90;2.60;;;19.30;73.00;;;;;;10534332;28;20207;-64
2021/09/03 02:36:29;;;;;;;3.37;3.07;;;19.30;73.60;;;;;;10542317;28;20195;-65
2021/09/03 02:41:51;;;;;;;3.37;3.07;;;19.30;73.70;;;;;;10541399;28;20218;-66
2021/09/03 02:47:15;;;;;;;3.23;2.93;;;19.20;73.50;;;;;;10541623;28;20215;-65
2021/09/03 02:52:37;;;;;;;3.30;3.00;;;19.30;73.30;;;;;;10540298;28;20211;-65
2021/09/03 02:57:59;;;;;;;2.47;2.27;;;19.30;73.60;;;;;;10539562;28;20196;-65
2021/09/03 03:03:22;;;;;;;3.17;2.87;;;19.20;73.60;;;;;;10541319;28;20188;-65
2021/09/03 03:08:44;;;;;;;3.30;3.00;;;19.20;73.10;;;;;;10541427;28;20219;-64
2021/09/03 03:14:11;;;;;;;2.80;2.60;;;19.20;73.50;;;;;;10539781;28;20199;-64
2021/09/03 03:19:34;;;;;;;2.97;2.77;;;19.20;73.70;;;;;;10540312;28;20207;-68
2021/09/03 03:24:56;;;;;;;3.27;2.93;;;19.20;73.60;;;;;;10540641;28;20553;-65
2021/09/03 03:30:20;;;;;;;5.60;3.03;;;19.20;73.00;;;;;;10538084;28;20637;-65
2021/09/03 03:35:43;;;;;;;3.00;2.80;;;19.20;73.60;;;;;;10539258;28;20210;-65
2021/09/03 03:41:05;;;;;;;3.20;2.90;;;19.20;73.70;;;;;;10539530;28;20726;-64
2021/09/03 03:46:27;;;;;;;3.33;2.90;;;19.20;73.50;;;;;;10538421;28;20687;-67
2021/09/03 03:51:51;;;;;;;3.20;2.83;;;19.20;73.40;;;;;;10537391;28;20214;-66
2021/09/03 03:57:13;;;;;;;2.60;2.40;;;19.20;73.70;;;;;;10535949;28;20188;-62
2021/09/03 04:02:35;;;;;;;3.10;2.80;;;19.20;73.70;;;;;;10535574;28;20580;-67
2021/09/03 04:07:58;;;;;;;2.63;2.27;;;19.20;73.20;;;;;;10537153;28;20622;-65
2021/09/03 04:13:20;;;;;;;2.80;2.60;;;19.20;73.60;;;;;;10537772;28;20195;-68
2021/09/03 04:18:43;;;;;;;2.67;2.47;;;19.20;73.80;;;;;;10538187;28;20215;-67
2021/09/03 04:24:06;;;;;;;3.47;2.90;;;19.20;73.70;;;;;;10537616;28;20203;-65
2021/09/03 04:29:28;;;;;;;3.00;2.70;;;19.20;73.00;;;;;;10536242;28;20207;-65
2021/09/03 04:34:51;;;;;;;2.67;2.47;;;19.20;73.70;;;;;;10536701;28;20676;-65
2021/09/03 04:40:15;;;;;;;2.80;2.60;;;19.20;73.80;;;;;;10537266;28;20230;-66
2021/09/03 04:45:37;;;;;;;2.93;2.63;;;19.20;73.60;;;;;;10537677;28;20222;-65
2021/09/03 04:50:59;;;;;;;2.80;2.60;;;19.20;73.40;;;;;;10537046;28;20696;-65
2021/09/03 04:56:23;;;;;;;3.90;2.83;;;19.20;73.80;;;;;;10535428;28;20218;-66
2021/09/03 05:01:45;;;;;;;3.10;2.80;;;19.20;73.80;;;;;;10536769;28;20219;-65
2021/09/03 05:07:07;;;;;;;2.60;2.40;;;19.20;73.30;;;;;;10536273;28;20718;-65
2021/09/03 05:12:31;;;;;;;2.90;2.60;;;19.20;73.40;;;;;;10521139;28;20730;-65
2021/09/03 05:17:53;;;;;;;3.17;2.87;;;19.20;73.80;;;;;;10535148;28;20188;-66
2021/09/03 05:23:15;;;;;;;2.60;2.40;;;19.20;73.80;;;;;;10533911;28;20207;-67
2021/09/03 05:28:40;;;;;;;2.60;2.40;;;19.20;73.10;;;;;;10536824;28;20246;-65
2021/09/03 05:34:02;;;;;;;3.17;2.90;;;19.20;73.70;;;;;;10534877;28;20684;-66
2021/09/03 05:39:24;;;;;;;2.73;2.53;;;19.20;73.90;;;;;;10533742;28;20218;-68
2021/09/03 05:44:47;;;;;;;3.20;2.90;;;19.20;73.50;;;;;;10534511;28;20199;-65
2021/09/03 05:50:11;;;;;;;2.73;2.53;;;19.20;73.50;;;;;;10533681;28;20227;-65
2021/09/03 05:55:33;;;;;;;2.80;2.60;;;19.20;74.30;;;;;;10534841;28;20192;-68
2021/09/03 06:00:56;;;;;;;3.20;2.90;;;19.20;73.80;;;;;;10532144;28;20412;-56
2021/09/03 06:06:18;;;;;;;2.83;2.57;;;19.30;72.60;;;;;;10501227;28;20220;-60
2021/09/03 06:11:40;;;;;;;2.73;2.53;;;19.30;73.20;;;;;;10511457;28;20228;-58
2021/09/03 06:17:04;;;;;;;3.00;2.77;;;19.20;73.40;;;;;;10527710;28;20664;-60
2021/09/03 06:22:26;;;;;;;2.47;2.27;;;19.20;73.30;;;;;;10532798;28;20592;-60
2021/09/03 06:27:48;;;;;;;2.93;2.67;;;19.10;73.40;;;;;;10533909;28;20615;-56
2021/09/03 06:33:12;;;;;;;3.40;2.87;;;19.20;73.80;;;;;;10512479;28;20205;-57
2021/09/03 06:38:34;;;;;;;3.00;2.70;;;19.20;73.80;;;;;;10503753;28;20377;-57
2021/09/03 06:43:56;;;;;;;2.60;2.40;;;19.10;73.70;;;;;;10516929;28;20210;-54
2021/09/03 06:49:20;;;;;;;2.73;2.27;;;19.10;73.50;;;;;;10532664;28;20226;-58
2021/09/03 06:54:42;;;;;;;2.77;2.57;;;19.20;73.90;;;;;;10532538;28;20545;-57
2021/09/03 07:00:05;;;;;;;2.60;2.40;;;19.10;73.90;;;;;;10519600;28;20741;-64
2021/09/03 07:05:28;;;;;;;2.83;2.63;;;19.10;73.90;;;;;;10493210;28;20212;-64
2021/09/03 07:10:50;;;;;;;2.97;2.67;;;19.10;73.50;;;;;;10513591;22;20231;-66
2021/09/03 07:16:12;;;;;;;3.47;2.63;;;19.20;74.10;;;;;;10488694;28;20215;-67
2021/09/03 07:21:36;;;;;;;4.50;2.83;;;19.10;74.10;;;;;;10474707;28;20223;-64
2021/09/03 07:26:59;;;;;;;3.53;2.70;;;19.10;73.70;;;;;;10492585;28;20218;-64
2021/09/03 07:32:21;;;;;;;3.20;2.77;;;19.20;73.60;;;;;;10497299;28;20220;-64
2021/09/03 07:37:44;;;;;;;2.57;2.37;;;19.20;73.90;;;;;;10499000;28;20661;-64
2021/09/03 07:43:07;;;;;;;2.93;2.63;;;19.10;73.90;;;;;;10498323;28;20216;-64
2021/09/03 07:48:29;;;;;;;3.47;3.00;;;19.20;73.20;;;;;;10497650;28;20223;-65
2021/09/03 07:53:53;;;;;;;3.13;2.80;;;19.20;74.00;;;;;;10496353;28;20219;-64
2021/09/03 07:59:15;;;;;;;3.23;2.40;;;19.10;74.10;;;;;;10517137;28;20195;-64
2021/09/03 08:04:37;;;;;;;3.33;2.90;;;19.20;73.70;;;;;;10538180;28;20196;-64
2021/09/03 08:10:01;;;;;;;2.83;2.50;;;19.20;73.80;;;;;;10537351;28;20215;-64
2021/09/03 08:15:23;;;;;;;3.77;2.97;;;19.10;74.60;;;;;;10482526;28;20212;-65
2021/09/03 08:20:45;;;;;;;3.40;3.10;;;19.10;74.00;;;;;;10496688;28;20220;-64
2021/09/03 08:26:09;;;;;;;3.40;2.80;;;19.20;73.20;;;;;;10496249;28;20192;-66
2021/09/03 08:31:31;;;;;;;3.20;2.70;;;19.20;73.90;;;;;;10494682;28;20212;-65
2021/09/03 08:36:53;;;;;;;3.83;3.20;;;19.20;74.00;;;;;;10495165;28;20200;-67
2021/09/03 08:42:17;;;;;;;3.40;2.80;;;19.20;73.50;;;;;;10491063;28;20231;-67
2021/09/03 08:47:39;;;;;;;3.23;2.87;;;19.20;73.70;;;;;;10492164;28;20208;-67
2021/09/03 08:53:02;;;;;;;3.47;3.17;;;19.20;73.90;;;;;;10492805;28;20686;-67
2021/09/03 08:58:25;;;;;;;3.53;3.03;;;19.20;73.80;;;;;;10507569;28;20198;-66
2021/09/03 09:03:49;;;;;;;3.93;3.13;;;19.20;72.60;;;;;;10534923;28;20226;-67
2021/09/03 09:09:11;;;;;;;3.10;2.80;;;19.20;73.50;;;;;;10534458;28;20592;-67
2021/09/03 09:15:07;;;;;;;3.23;2.93;;;19.20;73.80;;;;;;10495280;28;20196;-67
2021/09/03 09:20:29;;;;;;;4.10;3.10;;;19.20;72.70;;;;;;10493413;28;20228;-66
2021/09/03 09:25:58;;;;;;;3.20;2.90;;;19.20;73.00;;;;;;10494709;28;20688;-66
2021/09/03 09:31:35;;;;;;;4.23;3.23;;;19.20;73.50;;;;;;10492742;28;20221;-67
2021/09/03 09:37:01;;;;;;;3.60;3.00;;;19.20;73.60;;;;;;10452818;28;20200;-67
2021/09/03 09:42:27;;;;;;;3.10;2.80;;;19.20;73.80;;;;;;10457710;28;20223;-67
2021/09/03 09:47:50;;;;;;;3.53;2.93;;;19.10;74.50;;;;;;10492866;28;20220;-66
2021/09/03 09:53:14;;;;;;;3.53;3.23;;;19.10;74.00;;;;;;10492867;28;20213;-66
2021/09/03 09:58:37;;;;;;;3.93;3.40;;;19.10;74.10;;;;;;10506048;28;20188;-67
2021/09/03 10:04:04;;;;;;;3.40;3.10;;;19.10;74.20;;;;;;10515483;28;20216;-67
2021/09/03 10:09:28;;;;;;;3.73;3.37;;;19.10;74.40;;;;;;10492539;28;20588;-66
2021/09/03 10:14:50;;;;;;;3.83;3.33;;;19.10;74.40;;;;;;10493370;28;20220;-67
2021/09/03 10:20:15;;;;;;;3.83;2.90;;;19.00;74.40;;;;;;10493138;28;20580;-67
2021/09/03 10:25:52;;;;;;;4.60;2.87;;;19.10;74.70;;;;;;10492125;28;20806;-67
2021/09/03 10:31:19;;;;;;;3.43;3.13;;;19.00;74.60;;;;;;10472025;28;20243;-64
2021/09/03 10:36:58;;;;;;;4.13;3.30;;;19.00;74.70;;;;;;10491645;28;20196;-67
2021/09/03 10:43:00;;;;;;;3.50;3.20;;;19.10;74.60;;;;;;10493132;28;20220;-66
2021/09/03 10:48:26;;;;;;;4.17;3.27;;;19.10;74.60;;;;;;10486370;28;20359;-66
2021/09/03 10:53:49;;;;;;;4.27;3.47;;;19.00;74.80;;;;;;10454669;28;20322;-67
2021/09/03 10:59:12;;;;;;;4.03;3.20;;;19.00;74.90;;;;;;10500453;28;20203;-64
2021/09/03 11:04:45;;;;;;;4.07;3.40;;;19.00;75.00;;;;;;10458961;28;20201;-64
2021/09/03 11:10:17;;;;;;;5.83;4.07;;;19.00;75.00;;;;;;10478195;28;20239;-63
2021/09/03 11:15:39;;;;;;;4.80;3.87;;;19.10;75.10;;;;;;10499150;28;20196;-64
2021/09/03 11:21:01;;;;;;;6.60;3.70;;;19.00;75.70;;;;;;10499316;28;20217;-64
2021/09/03 11:26:26;;;;;;;4.67;3.63;;;19.00;75.20;;;;;;10498311;28;20200;-64
2021/09/03 11:32:07;;;;;;;4.40;3.90;;;19.00;75.30;;;;;;10457151;28;20213;-64
2021/09/03 11:37:37;;;;;;;4.87;3.63;;;19.10;75.40;;;;;;10462771;28;20196;-65
2021/09/03 11:43:02;;;;;;;8.57;4.17;;;19.00;75.30;;;;;;10497804;28;20751;-64
2021/09/03 11:48:25;;;;;;;6.27;4.50;;;19.00;75.40;;;;;;10488380;28;20225;-67
2021/09/03 11:53:48;;;;;;;6.15;4.30;;;19.00;75.50;;;;;;10457842;28;20961;-67
2021/09/03 11:59:14;;;;;;;5.85;4.80;;;19.10;75.60;;;;;;10496383;28;20423;-66
2021/09/03 12:04:36;;;;;;;6.73;4.37;;;19.30;74.90;;;;;;10495909;28;20565;-66
2021/09/03 12:09:58;;;;;;;6.43;4.37;;;19.20;75.00;;;;;;10496544;28;20598;-66
2021/09/03 12:15:22;;;;;;;7.83;4.40;;;19.10;75.30;;;;;;10495935;28;20684;-66
2021/09/03 12:20:48;;;;;;;6.73;4.67;;;19.10;76.10;;;;;;10493446;28;20223;-67
2021/09/03 12:26:15;;;;;;;7.27;4.27;;;19.10;75.70;;;;;;10496084;28;20580;-67
2021/09/03 12:31:39;;;;;;;6.97;4.50;;;19.10;75.90;;;;;;10453922;28;20224;-66
2021/09/03 12:37:02;;;;;;;4.77;4.07;;;19.10;75.90;;;;;;10471657;28;20665;-66
2021/09/03 12:42:24;;;;;;;6.23;4.23;;;19.10;76.00;;;;;;10494761;28;20223;-67
2021/09/03 12:48:06;;;;;;;5.37;4.57;;;19.10;76.10;;;;;;10494358;28;20219;-67
2021/09/03 12:53:28;;;;;;;5.13;3.80;;;19.10;76.10;;;;;;10493347;28;20232;-67
2021/09/03 12:58:50;;;;;;;7.43;4.47;;;19.10;76.20;;;;;;10510784;28;20188;-67
2021/09/03 13:04:18;;;;;;;5.37;4.00;;;19.00;76.80;;;;;;10515586;28;20208;-67
2021/09/03 13:09:40;;;;;;;5.53;4.07;;;19.10;76.90;;;;;;10494562;28;20227;-67
2021/09/03 13:15:02;;;;;;;4.20;3.80;;;19.00;76.30;;;;;;10455612;22;20237;-62
2021/09/03 13:20:25;;;;;;;6.22;5.20;;;19.10;76.30;;;;;;10407154;28;20437;-63
2021/09/03 13:25:47;;;;;;;5.20;4.10;;;19.30;75.80;;;;;;10389376;28;20217;-63
2021/09/03 13:31:09;;;;;;;5.57;4.33;;;19.20;75.80;;;;;;10408463;28;20221;-63
2021/09/03 13:36:35;;;;;;;5.63;4.20;;;19.20;76.20;;;;;;10411579;28;20205;-63
2021/09/03 13:41:57;;;;;;;5.53;4.60;;;19.10;76.30;;;;;;10399166;28;20213;-65
2021/09/03 13:47:21;;;;;;;5.40;4.20;;;19.10;76.40;;;;;;10390627;28;20214;-57
2021/09/03 13:52:44;;;;;;;5.33;4.07;;;19.10;76.40;;;;;;10391720;28;20351;-56
2021/09/03 13:58:06;;;;;;;5.10;4.17;;;19.10;76.40;;;;;;10410656;28;20194;-58
2021/09/03 14:03:28;;;;;;;4.80;4.30;;;19.10;76.50;;;;;;10407518;28;20698;-54
2021/09/03 14:08:52;;;;;;;5.63;4.13;;;19.00;76.40;;;;;;10393559;28;20245;-58
2021/09/03 14:14:14;;;;;;;5.17;4.27;;;19.00;76.50;;;;;;10404685;28;20710;-57
2021/09/03 14:19:40;;;;;;;5.70;4.47;;;19.00;76.50;;;;;;10372405;28;20201;-57
2021/09/03 14:25:04;;;;;;;5.13;4.23;;;19.10;76.60;;;;;;10369841;28;20214;-56
2021/09/03 14:30:26;;;;;;;5.23;4.40;;;19.00;76.60;;;;;;10413006;28;20218;-57
2021/09/03 14:35:48;;;;;;;5.73;4.50;;;19.00;76.60;;;;;;10420518;28;20224;-56
2021/09/03 14:41:12;;;;;;;6.23;4.87;;;19.00;76.70;;;;;;10422563;28;20186;-57
2021/09/03 14:46:34;;;;;;;4.93;4.47;;;19.00;76.80;;;;;;10423487;28;20209;-58
2021/09/03 14:51:56;;;;;;;5.97;4.87;;;19.00;76.80;;;;;;10423223;28;20729;-56
2021/09/03 14:57:19;;;;;;;5.40;4.90;;;19.00;76.90;;;;;;10422286;28;20689;-62
2021/09/03 15:02:41;;;;;;;6.00;5.03;;;19.00;76.90;;;;;;10381991;28;20721;-57
2021/09/03 15:08:04;;;;;;;5.87;5.00;;;19.00;76.90;;;;;;10403481;28;20551;-60
2021/09/03 15:13:27;;;;;;;8.30;5.67;;;19.00;77.00;;;;;;10422093;28;20228;-59
2021/09/03 15:18:49;;;;;;;6.33;5.10;;;19.00;77.00;;;;;;10422092;28;20193;-59
2021/09/03 15:24:11;;;;;;;6.83;5.53;;;19.00;77.00;;;;;;10422103;28;20226;-55
2021/09/03 15:29:35;;;;;;;5.73;5.23;;;19.00;77.00;;;;;;10419707;28;20244;-58
2021/09/03 15:34:57;;;;;;;5.97;5.30;;;19.00;77.10;;;;;;10421033;28;20224;-64
2021/09/03 15:40:20;;;;;;;6.17;4.93;;;19.00;77.10;;;;;;10413383;28;20198;-65
2021/09/03 15:45:44;;;;;;;6.33;5.63;;;19.10;77.30;;;;;;10415045;28;20582;-66
2021/09/03 15:51:08;;;;;;;5.70;5.10;;;19.00;77.20;;;;;;10414923;28;20229;-65
2021/09/03 15:56:30;;;;;;;6.97;5.33;;;19.00;77.30;;;;;;10415238;28;20204;-64
2021/09/03 16:01:53;;;;;;;5.87;5.23;;;19.10;77.30;;;;;;10411311;28;20221;-66
2021/09/03 16:07:15;;;;;;;5.97;5.10;;;19.00;77.30;;;;;;10412591;28;20582;-66
2021/09/03 16:12:38;;;;;;;5.53;5.03;;;19.10;77.30;;;;;;10411675;28;20248;-66
2021/09/03 16:18:02;;;;;;;5.80;5.20;;;19.10;77.30;;;;;;10412167;28;20197;-68
2021/09/03 16:23:24;;;;;;;6.03;5.20;;;19.10;77.40;;;;;;10412483;28;20217;-65
2021/09/03 16:28:46;;;;;;;6.47;4.97;;;19.10;77.30;;;;;;10410627;28;20217;-65
2021/09/03 16:34:10;;;;;;;6.23;5.00;;;19.10;77.40;;;;;;10412070;28;20233;-65
2021/09/03 16:39:32;;;;;;;7.95;7.15;;;19.00;77.30;;;;;;10408521;28;20425;-65
2021/09/03 16:44:54;;;;;;;6.73;5.30;;;19.50;76.10;;;;;;10409742;28;20598;-65
2021/09/03 16:50:18;;;;;;;5.40;4.90;;;19.40;74.90;;;;;;10409121;28;20216;-66
2021/09/03 16:55:40;;;;;;;5.67;5.07;;;19.30;73.40;;;;;;10410853;28;20223;-65
2021/09/03 17:01:03;;;;;;;5.63;5.10;;;19.40;72.40;;;;;;10409670;28;20654;-66
2021/09/03 17:06:27;;;;;;;5.70;5.10;;;19.40;71.50;;;;;;10409727;28;20189;-65
2021/09/03 17:11:49;;;;;;;5.90;5.00;;;19.40;72.10;;;;;;10409354;28;20233;-66
2021/09/03 17:17:12;;;;;;;6.90;5.90;;;19.30;72.90;;;;;;10411601;28;20202;-61
2021/09/03 17:22:36;;;;;;;7.83;6.10;;;19.30;72.90;;;;;;10410325;28;20236;-64
2021/09/03 17:27:58;;;;;;;8.10;6.63;;;19.30;72.20;;;;;;10402101;28;20222;-63
2021/09/03 17:33:20;;;;;;;7.70;6.83;;;19.40;71.70;;;;;;10400068;28;20226;-62
2021/09/03 17:38:44;;;;;;;7.03;6.33;;;19.40;71.20;;;;;;10410954;28;20197;-64
2021/09/03 17:44:06;;;;;;;10.93;7.13;;;19.40;71.10;;;;;;10411647;28;20218;-62
2021/09/03 17:49:28;;;;;;;9.63;7.00;;;19.40;72.40;;;;;;10410530;28;20222;-61
2021/09/03 17:54:52;;;;;;;7.97;7.10;;;19.30;72.70;;;;;;10410384;28;20221;-62
2021/09/03 18:00:15;;;;;;;8.60;7.50;;;19.30;72.10;;;;;;10406864;28;20205;-63
2021/09/03 18:05:37;;;;;;;8.53;7.57;;;19.40;71.40;;;;;;10410187;28;20245;-62
2021/09/03 18:11:00;;;;;;;9.03;7.37;;;19.40;72.50;;;;;;10410277;28;20617;-63
2021/09/03 18:16:23;;;;;;;8.03;6.87;;;19.30;72.70;;;;;;10411482;28;20670;-60
2021/09/03 18:21:45;;;;;;;8.80;6.93;;;19.30;72.40;;;;;;10409039;28;20540;-62
2021/09/03 18:27:08;;;;;;;9.40;7.60;;;19.30;71.50;;;;;;10405696;28;20201;-62
2021/09/03 18:32:30;;;;;;;9.37;7.40;;;19.40;72.30;;;;;;10402494;28;20245;-63
2021/09/03 18:37:53;;;;;;;8.63;7.03;;;19.30;72.60;;;;;;10403979;28;20202;-62
2021/09/03 18:43:16;;;;;;;8.03;7.10;;;19.30;72.50;;;;;;10402709;28;20225;-66
2021/09/03 18:48:38;;;;;;;9.03;7.63;;;19.40;71.60;;;;;;10402826;28;20214;-64
2021/09/03 18:54:01;;;;;;;8.17;7.33;;;19.30;72.50;;;;;;10403860;28;20220;-63
2021/09/03 18:59:24;;;;;;;8.27;6.90;;;19.30;72.80;;;;;;10374208;28;20202;-63
2021/09/03 19:04:46;;;;;;;7.90;7.10;;;19.30;72.40;;;;;;10364006;28;20242;-64
2021/09/03 19:10:11;;;;;;;7.37;6.53;;;19.40;71.90;;;;;;10382235;28;20221;-63
2021/09/03 19:15:35;;;;;;;7.83;6.90;;;19.30;72.80;;;;;;10407202;28;20230;-64
2021/09/03 19:20:57;;;;;;;8.00;7.13;;;19.30;73.00;;;;;;10410869;28;20205;-65
2021/09/03 19:26:19;;;;;;;7.93;6.63;;;19.30;72.10;;;;;;10405816;28;20288;-64
2021/09/03 19:31:43;;;;;;;7.80;6.93;;;19.40;71.80;;;;;;10399544;28;20252;-62
2021/09/03 19:37:05;;;;;;;7.73;6.93;;;19.30;72.70;;;;;;10401428;28;20206;-63
2021/09/03 19:42:27;;;;;;;7.43;6.63;;;19.30;72.80;;;;;;10409161;28;20206;-63
2021/09/03 19:47:52;;;;;;;7.83;6.43;;;19.40;72.00;;;;;;10417354;28;20205;-59
2021/09/03 19:53:14;;;;;;;8.30;7.17;;;19.40;72.50;;;;;;10449663;28;20213;-64
2021/09/03 19:58:37;;;;;;;6.93;6.23;;;19.40;72.80;;;;;;10405796;28;20710;-62
2021/09/03 20:04:00;;;;;;;8.13;6.80;;;19.40;72.70;;;;;;10368434;28;20317;-63
2021/09/03 20:09:22;;;;;;;7.70;6.60;;;19.40;72.40;;;;;;10465111;23;20235;-60
2021/09/03 20:14:44;;;;;;;6.90;6.17;;;19.40;73.20;;;;;;10494623;28;20585;-62
2021/09/03 20:20:09;;;;;;;6.93;6.20;;;19.30;73.10;;;;;;10465211;28;20600;-62
2021/09/03 20:25:31;;;;;;;7.57;6.20;;;19.40;72.10;;;;;;10453044;28;20662;-62
2021/09/03 20:30:53;;;;;;;7.27;6.57;;;19.40;71.70;;;;;;10452877;28;20223;-63
2021/09/03 20:36:17;;;;;;;6.90;6.03;;;19.40;72.50;;;;;;10454368;28;20216;-62
2021/09/03 20:41:39;;;;;;;7.03;6.33;;;19.40;72.80;;;;;;10453555;28;20550;-63
2021/09/03 20:47:01;;;;;;;8.33;6.07;;;19.40;72.00;;;;;;10455875;28;20586;-61
2021/09/03 20:52:24;;;;;;;7.50;6.70;;;19.40;72.30;;;;;;10451923;28;20205;-61
2021/09/03 20:57:46;;;;;;;6.53;5.83;;;19.40;72.80;;;;;;10452207;28;20213;-62
2021/09/03 21:03:09;;;;;;;6.83;5.90;;;19.40;72.90;;;;;;10454642;28;20204;-61
2021/09/03 21:08:32;;;;;;;6.30;5.70;;;19.40;72.00;;;;;;10493134;28;20862;-62
2021/09/03 21:13:54;;;;;;;6.57;5.97;;;19.40;73.10;;;;;;10483101;28;20205;-63
2021/09/03 21:19:16;;;;;;;7.70;6.37;;;19.40;73.10;;;;;;10491332;28;20223;-62
2021/09/03 21:24:40;;;;;;;6.73;5.70;;;19.40;72.20;;;;;;10453677;28;20196;-63
2021/09/03 21:30:02;;;;;;;6.47;5.50;;;19.40;73.70;;;;;;10452068;28;20579;-61
2021/09/03 21:35:24;;;;;;;5.90;5.27;;;19.30;73.20;;;;;;10452365;28;20197;-62
2021/09/03 21:40:48;;;;;;;6.07;5.37;;;19.40;72.50;;;;;;10470184;28;20219;-61
2021/09/03 21:46:10;;;;;;;7.00;5.87;;;19.40;72.70;;;;;;10493669;28;20660;-62
2021/09/03 21:51:32;;;;;;;6.17;5.53;;;19.40;73.10;;;;;;10493551;28;20576;-61
2021/09/03 21:56:56;;;;;;;6.80;6.00;;;19.30;72.90;;;;;;10494138;28;20227;-61
2021/09/03 22:02:18;;;;;;;6.07;5.47;;;19.40;71.80;;;;;;10493316;28;20192;-62
2021/09/03 22:07:40;;;;;;;6.13;5.53;;;19.40;72.90;;;;;;10470440;28;20228;-62
2021/09/03 22:13:04;;;;;;;7.37;5.80;;;19.30;73.00;;;;;;10451036;28;20224;-62
2021/09/03 22:18:26;;;;;;;6.67;5.50;;;19.40;72.40;;;;;;10452559;28;20225;-61
2021/09/03 22:23:48;;;;;;;5.83;5.20;;;19.40;72.60;;;;;;10450938;28;20201;-61
2021/09/03 22:29:12;;;;;;;6.07;5.07;;;19.30;73.10;;;;;;10449933;28;20572;-62
2021/09/03 22:34:34;;;;;;;5.77;5.17;;;19.30;73.00;;;;;;10451057;28;20205;-62
2021/09/03 22:39:56;;;;;;;5.60;5.03;;;19.40;71.90;;;;;;10448568;28;20231;-61
2021/09/03 22:45:20;;;;;;;5.93;5.07;;;19.40;73.00;;;;;;10451262;28;20210;-60
2021/09/03 22:50:42;;;;;;;6.60;5.07;;;19.30;73.00;;;;;;10457818;28;20221;-62
2021/09/03 22:56:04;;;;;;;5.63;4.93;;;19.30;72.40;;;;;;10459581;28;20204;-61
2021/09/03 23:01:28;;;;;;;5.20;4.70;;;19.40;73.00;;;;;;10458532;28;20223;-61
2021/09/03 23:06:50;;;;;;;5.17;4.67;;;19.30;73.30;;;;;;10458187;28;20208;-61
2021/09/03 23:12:12;;;;;;;4.93;4.43;;;19.40;72.70;;;;;;10476558;28;20215;-60
2021/09/03 23:17:35;;;;;;;5.30;4.70;;;19.40;72.40;;;;;;10462074;28;20221;-63
2021/09/03 23:22:57;;;;;;;4.97;4.43;;;19.40;73.20;;;;;;10454317;28;20199;-64
2021/09/03 23:28:19;;;;;;;5.50;4.80;;;19.30;73.80;;;;;;10457379;28;20224;-61
2021/09/03 23:33:43;;;;;;;5.73;4.20;;;19.40;72.20;;;;;;10456731;28;20284;-63
2021/09/03 23:39:05;;;;;;;5.47;4.53;;;19.40;73.10;;;;;;10457315;28;20221;-62
2021/09/03 23:44:27;;;;;;;4.97;4.40;;;19.30;73.20;;;;;;10457185;28;20193;-61
2021/09/03 23:49:51;;;;;;;4.50;4.10;;;19.40;72.50;;;;;;10456988;28;20225;-62
2021/09/03 23:55:13;;;;;;;5.00;4.50;;;19.40;72.60;;;;;;10457741;28;20687;-62
